createdAt,value
2022-10-05T03:02:34.209Z,101769.56
2022-10-05T03:05:32.282Z,101769.78
2022-10-05T03:08:15.322Z,101759.28
2022-10-05T03:11:04.152Z,101768.13
2022-10-05T03:14:02.824Z,101769.19
2022-10-05T03:16:49.496Z,101770.69
2022-10-05T03:19:31.711Z,101769.78
2022-10-05T03:22:04.708Z,101768.91
2022-10-05T03:24:45.736Z,101770.69
2022-10-05T03:27:25.723Z,101771.56
2022-10-05T03:30:05.168Z,101769.00
2022-10-05T03:32:56.732Z,101769.91
2022-10-05T03:35:28.660Z,101765.50
2022-10-05T03:38:33.704Z,101774.25
2022-10-05T03:41:24.248Z,101775.13
2022-10-05T03:43:57.773Z,101777.84
2022-10-05T03:46:39.513Z,101774.25
2022-10-05T03:49:15.791Z,101755.06
2022-10-05T03:51:47.479Z,101760.59
2022-10-05T03:54:31.368Z,101742.06
2022-10-05T03:57:07.408Z,101751.75
2022-10-05T03:59:42.188Z,101749.31
2022-10-05T04:02:29.733Z,101766.13
2022-10-05T04:05:37.395Z,101760.88
2022-10-05T04:08:22.412Z,101759.09
2022-10-05T04:10:54.876Z,101763.69
2022-10-05T04:13:30.467Z,101773.38
2022-10-05T04:16:12.493Z,101752.13
2022-10-05T04:18:46.096Z,101769.03
2022-10-05T04:21:23.486Z,101760.28
2022-10-05T04:24:11.024Z,101767.34
2022-10-05T04:26:46.358Z,101772.72
2022-10-05T04:29:24.578Z,101772.72
2022-10-05T04:32:29.108Z,101773.56
2022-10-05T04:35:11.687Z,101771.00
2022-10-05T04:38:17.772Z,101777.88
2022-10-05T04:41:07.633Z,101779.69
2022-10-05T04:43:55.045Z,101768.19
2022-10-05T04:46:45.364Z,101782.13
2022-10-05T04:49:48.834Z,101770.56
2022-10-05T04:52:37.944Z,101780.22
2022-10-05T04:55:30.964Z,101770.53
2022-10-05T04:58:30.034Z,101778.47
2022-10-05T05:01:16.433Z,101758.91
2022-10-05T05:04:02.511Z,101779.22
2022-10-05T05:07:03.138Z,101776.53
2022-10-05T05:09:48.706Z,101780.84
2022-10-05T05:12:28.434Z,101777.53
2022-10-05T05:15:47.273Z,101783.81
2022-10-05T05:18:33.412Z,101781.09
2022-10-05T05:21:33.497Z,101777.69
2022-10-05T05:24:03.482Z,101780.34
2022-10-05T05:27:00.850Z,101780.25
2022-10-05T05:29:49.893Z,101772.41
2022-10-05T05:32:42.105Z,101779.31
2022-10-05T05:35:47.235Z,101780.16
2022-10-05T05:38:33.164Z,101781.06
2022-10-05T05:41:21.463Z,101803.69
2022-10-05T05:44:10.787Z,101794.88
2022-10-05T05:47:02.359Z,101790.34
2022-10-05T05:49:47.700Z,101795.69
2022-10-05T05:52:23.110Z,101799.25
2022-10-05T05:54:54.698Z,101794.16
2022-10-05T05:58:03.235Z,101801.91
2022-10-05T06:00:39.347Z,101781.78
2022-10-05T06:03:27.856Z,101802.06
2022-10-05T06:05:59.997Z,101797.63
2022-10-05T06:08:40.336Z,101796.72
2022-10-05T06:11:47.979Z,101785.00
2022-10-05T06:14:33.842Z,101793.22
2022-10-05T06:17:16.190Z,101806.41
2022-10-05T06:19:45.933Z,101803.84
2022-10-05T06:22:24.981Z,101776.53
2022-10-05T06:25:29.102Z,101806.69
2022-10-05T06:28:18.569Z,101818.13
2022-10-05T06:31:07.940Z,101814.72
2022-10-05T06:33:59.862Z,101806.94
2022-10-05T06:36:39.896Z,101809.81
2022-10-05T06:39:37.972Z,101800.13
2022-10-05T06:42:17.235Z,101817.84
2022-10-05T06:45:37.903Z,101824.97
2022-10-05T06:48:32.691Z,101822.53
2022-10-05T06:51:38.448Z,101824.41
2022-10-05T06:54:31.806Z,101819.34
2022-10-05T06:57:25.240Z,101807.16
2022-10-05T07:00:07.785Z,101821.44
2022-10-05T07:02:48.672Z,101809.03
2022-10-05T07:05:34.849Z,101818.06
2022-10-05T07:08:18.273Z,101814.59
2022-10-05T07:11:05.310Z,101818.31
2022-10-05T07:13:55.090Z,101823.81
2022-10-05T07:16:26.813Z,101832.03
2022-10-05T07:19:10.680Z,101809.13
2022-10-05T07:21:44.207Z,101832.28
2022-10-05T07:24:36.265Z,101831.44
2022-10-05T07:27:40.948Z,101823.78
2022-10-05T07:30:11.811Z,101797.31
2022-10-05T07:33:06.482Z,101820.44
2022-10-05T07:36:12.769Z,101819.78
2022-10-05T07:38:54.799Z,101819.88
2022-10-05T07:41:54.353Z,101821.94
2022-10-05T07:44:29.190Z,101817.53
2022-10-05T07:46:58.920Z,101798.16
2022-10-05T07:49:52.362Z,101825.59
2022-10-05T07:52:34.684Z,101824.78
2022-10-05T07:55:22.901Z,101833.72
2022-10-05T07:58:32.351Z,101837.38
2022-10-05T08:01:36.467Z,101827.72
2022-10-05T08:04:31.586Z,101833.25
2022-10-05T08:07:14.302Z,101828.06
2022-10-05T08:09:42.569Z,101821.09
2022-10-05T08:12:38.275Z,101839.88
2022-10-05T08:15:28.963Z,101834.72
2022-10-05T08:18:03.380Z,101833.09
2022-10-05T08:20:55.280Z,101836.75
2022-10-05T08:23:34.669Z,101824.47
2022-10-05T08:26:17.234Z,101837.88
2022-10-05T08:29:26.623Z,101832.59
2022-10-05T08:32:02.938Z,101840.69
2022-10-05T08:34:33.671Z,101840.03
2022-10-05T08:37:09.833Z,101817.81
2022-10-05T08:39:41.161Z,101831.22
2022-10-05T08:42:27.643Z,101846.50
2022-10-05T08:45:18.219Z,101841.31
2022-10-05T08:48:10.442Z,101842.16
2022-10-05T08:50:59.425Z,101844.03
2022-10-05T08:53:58.145Z,101823.88
2022-10-05T08:56:51.596Z,101837.28
2022-10-05T08:59:37.385Z,101840.88
2022-10-05T09:02:17.243Z,101844.44
2022-10-05T09:05:12.456Z,101849.81
2022-10-05T09:07:57.834Z,101854.38
2022-10-05T09:10:44.701Z,101839.44
2022-10-05T09:13:43.090Z,101853.66
2022-10-05T09:16:24.811Z,101841.38
2022-10-05T09:19:13.755Z,101853.72
2022-10-05T09:21:49.474Z,101855.47
2022-10-05T09:24:27.309Z,101850.22
2022-10-05T09:27:03.842Z,101831.91
2022-10-05T09:29:52.038Z,101849.63
2022-10-05T09:32:43.954Z,101848.81
2022-10-05T09:35:14.397Z,101816.94
2022-10-05T09:38:08.529Z,101842.75
2022-10-05T09:41:04.231Z,101849.91
2022-10-05T09:43:49.748Z,101846.59
2022-10-05T09:46:35.311Z,101850.03
2022-10-05T09:49:38.172Z,101857.16
2022-10-05T09:52:25.704Z,101851.09
2022-10-05T09:55:11.528Z,101851.25
2022-10-05T09:57:50.846Z,101847.75
2022-10-05T10:00:38.653Z,101852.28
2022-10-05T10:03:39.521Z,101853.16
2022-10-05T10:06:31.128Z,101846.31
2022-10-05T10:09:14.022Z,101857.91
2022-10-05T10:12:18.826Z,101853.53
2022-10-05T10:15:11.237Z,101856.22
2022-10-05T10:18:23.169Z,101854.44
2022-10-05T10:21:11.103Z,101853.72
2022-10-05T10:24:00.494Z,101870.59
2022-10-05T10:26:53.933Z,101869.78
2022-10-05T10:29:39.910Z,101863.66
2022-10-05T10:32:29.309Z,101861.09
2022-10-05T10:35:19.622Z,101862.03
2022-10-05T10:37:52.727Z,101855.84
2022-10-05T10:40:38.684Z,101865.56
2022-10-05T10:43:28.821Z,101849.66
2022-10-05T10:46:33.567Z,101858.50
2022-10-05T10:49:28.262Z,101848.75
2022-10-05T10:52:20.327Z,101849.63
2022-10-05T10:55:08.774Z,101840.78
2022-10-05T10:58:03.643Z,101848.69
2022-10-05T11:00:48.929Z,101831.78
2022-10-05T11:03:37.192Z,101838.75
2022-10-05T11:06:10.761Z,101840.53
2022-10-05T11:08:59.291Z,101848.47
2022-10-05T11:12:00.148Z,101852.81
2022-10-05T11:14:46.491Z,101843.84
2022-10-05T11:17:33.675Z,101849.13
2022-10-05T11:20:21.191Z,101842.06
2022-10-05T11:23:00.332Z,101849.78
2022-10-05T11:25:44.587Z,101847.88
2022-10-05T11:28:27.651Z,101855.72
2022-10-05T11:30:57.785Z,101849.28
2022-10-05T11:34:02.753Z,101840.38
2022-10-05T11:36:56.303Z,101851.88
2022-10-05T11:39:40.197Z,101841.22
2022-10-05T11:42:10.733Z,101852.47
2022-10-05T11:45:19.501Z,101846.19
2022-10-05T11:47:52.453Z,101845.16
2022-10-05T11:50:22.534Z,101844.88
2022-10-05T11:53:29.853Z,101840.44
2022-10-05T11:56:24.710Z,101839.44
2022-10-05T11:58:51.839Z,101834.81
2022-10-05T12:01:56.249Z,101831.22
2022-10-05T12:04:29.460Z,101838.22
2022-10-05T12:07:04.391Z,101831.63
2022-10-05T12:10:07.201Z,101816.59
2022-10-05T12:12:44.801Z,101825.38
2022-10-05T12:15:27.126Z,101823.84
2022-10-05T12:18:08.528Z,101817.31
2022-10-05T12:21:15.363Z,101827.88
2022-10-05T12:24:25.991Z,101816.25
2022-10-05T12:27:01.187Z,101807.16
2022-10-05T12:29:37.377Z,101794.53
2022-10-05T12:32:21.571Z,101799.63
2022-10-05T12:35:01.071Z,101786.88
2022-10-05T12:37:52.770Z,101788.47
2022-10-05T12:40:35.131Z,101800.78
2022-10-05T12:43:19.445Z,101797.66
2022-10-05T12:46:00.553Z,101792.53
2022-10-05T12:48:49.483Z,101794.97
2022-10-05T12:51:22.822Z,101790.88
2022-10-05T12:53:58.269Z,101795.84
2022-10-05T12:57:03.068Z,101790.69
2022-10-05T12:59:45.380Z,101787.25
2022-10-05T13:02:55.164Z,101786.50
2022-10-05T13:06:02.730Z,101783.50
2022-10-05T13:08:57.792Z,101777.19
2022-10-05T13:11:38.121Z,101779.06
2022-10-05T13:14:38.334Z,101774.63
2022-10-05T13:17:12.011Z,101780.28
2022-10-05T13:19:44.853Z,101767.16
2022-10-05T13:22:34.721Z,101788.19
2022-10-05T13:25:14.199Z,101787.63
2022-10-05T13:27:47.460Z,101782.31
2022-10-05T13:30:20.830Z,101764.72
2022-10-05T13:32:57.720Z,101770.69
2022-10-05T13:35:43.585Z,101781.25
2022-10-05T13:38:55.784Z,101780.31
2022-10-05T13:41:41.004Z,101794.66
2022-10-05T13:44:24.996Z,101795.63
2022-10-05T13:47:07.090Z,101799.19
2022-10-05T13:49:48.481Z,101802.84
2022-10-05T13:52:39.982Z,101797.56
2022-10-05T13:55:23.073Z,101796.75
2022-10-05T13:57:57.789Z,101807.25
2022-10-05T14:00:27.349Z,101780.03
2022-10-05T14:02:57.615Z,101797.31
2022-10-05T14:05:28.181Z,101794.44
2022-10-05T14:08:03.398Z,101795.31
2022-10-05T14:10:37.638Z,101802.53
2022-10-05T14:13:19.705Z,101802.31
2022-10-05T14:16:13.111Z,101805.94
2022-10-05T14:19:07.468Z,101813.09
2022-10-05T14:22:08.035Z,101809.81
2022-10-05T14:24:44.012Z,101815.13
2022-10-05T14:27:25.222Z,101817.56
2022-10-05T14:30:00.412Z,101825.47
2022-10-05T14:32:33.521Z,101832.72
2022-10-05T14:35:15.996Z,101826.59
2022-10-05T14:37:51.618Z,101827.06
2022-10-05T14:40:39.196Z,101837.38
2022-10-05T14:43:33.047Z,101847.22
2022-10-05T14:46:05.489Z,101838.66
2022-10-05T14:48:43.622Z,101846.00
2022-10-05T14:51:15.154Z,101859.31
2022-10-05T14:53:55.938Z,101865.91
2022-10-05T14:56:44.583Z,101874.00
2022-10-05T14:59:49.640Z,101878.88
2022-10-05T15:02:51.800Z,101878.06
2022-10-05T15:05:43.948Z,101880.78
2022-10-05T15:08:39.287Z,101881.84
2022-10-05T15:11:09.373Z,101886.44
2022-10-05T15:13:42.855Z,101904.22
2022-10-05T15:16:19.562Z,101895.72
2022-10-05T15:19:04.694Z,101901.06
2022-10-05T15:22:14.368Z,101888.78
2022-10-05T15:24:48.541Z,101895.16
2022-10-05T15:27:36.780Z,101894.34
2022-10-05T15:30:11.889Z,101903.25
2022-10-05T15:33:04.616Z,101906.81
2022-10-05T15:35:48.591Z,101925.44
2022-10-05T15:38:25.808Z,101925.53
2022-10-05T15:41:24.795Z,101928.19
2022-10-05T15:44:02.170Z,101934.50
2022-10-05T15:46:45.162Z,101928.28
2022-10-05T15:49:22.841Z,101937.94
2022-10-05T15:52:13.599Z,101933.56
2022-10-05T15:55:08.594Z,101938.91
2022-10-05T15:57:55.038Z,101940.69
2022-10-05T16:00:25.479Z,101926.63
2022-10-05T16:03:41.818Z,101949.63
2022-10-05T16:06:57.697Z,101950.53
2022-10-05T16:09:47.090Z,101970.19
2022-10-05T16:12:39.174Z,101973.75
2022-10-05T16:15:17.090Z,101975.63
2022-10-05T16:18:15.505Z,101983.59
2022-10-05T16:21:01.371Z,101981.88
2022-10-05T16:23:54.911Z,101982.84
2022-10-05T16:26:32.808Z,101994.34
2022-10-05T16:29:15.504Z,101989.97
2022-10-05T16:32:06.123Z,102005.97
2022-10-05T16:34:51.204Z,102017.47
2022-10-05T16:37:24.417Z,102018.34
2022-10-05T16:40:02.680Z,102000.72
2022-10-05T16:42:53.898Z,102044.97
2022-10-05T16:45:53.453Z,102047.63
2022-10-05T16:48:29.421Z,102039.69
2022-10-05T16:50:59.701Z,102060.91
2022-10-05T16:53:51.936Z,102059.16
2022-10-05T16:56:25.338Z,102066.22
2022-10-05T16:59:01.349Z,102070.56
2022-10-05T17:02:01.626Z,102074.09
2022-10-05T17:04:41.171Z,102067.03
2022-10-05T17:07:18.409Z,102071.44
2022-10-05T17:10:17.826Z,102082.00
2022-10-05T17:13:11.868Z,102081.97
2022-10-05T17:15:39.227Z,102089.00
2022-10-05T17:18:30.089Z,102094.25
2022-10-05T17:21:15.687Z,102090.69
2022-10-05T17:23:59.129Z,102085.28
2022-10-05T17:26:33.606Z,102115.34
2022-10-05T17:29:16.174Z,102110.84
2022-10-05T17:32:03.067Z,102119.69
2022-10-05T17:34:34.557Z,102117.81
2022-10-05T17:37:41.438Z,102128.41
2022-10-05T17:40:33.177Z,102142.47
2022-10-05T17:43:25.555Z,102140.66
2022-10-05T17:45:57.387Z,102133.56
2022-10-05T17:49:02.837Z,102141.38
2022-10-05T17:51:48.811Z,102144.03
2022-10-05T17:54:51.112Z,102150.16
2022-10-05T17:57:29.417Z,102137.66
2022-10-05T18:00:01.861Z,102160.59
2022-10-05T18:02:38.722Z,102164.03
2022-10-05T18:05:16.310Z,102175.44
2022-10-05T18:07:51.044Z,102178.84
2022-10-05T18:10:34.777Z,102191.13
2022-10-05T18:13:04.872Z,102171.56
2022-10-05T18:15:32.047Z,102204.25
2022-10-05T18:18:33.140Z,102212.09
2022-10-05T18:21:12.323Z,102212.00
2022-10-05T18:23:47.526Z,102194.09
2022-10-05T18:26:43.831Z,102217.06
2022-10-05T18:29:48.676Z,102219.69
2022-10-05T18:32:43.064Z,102223.81
2022-10-05T18:35:43.181Z,102200.59
2022-10-05T18:38:23.713Z,102240.50
2022-10-05T18:41:19.561Z,102250.09
2022-10-05T18:44:09.507Z,102255.25
2022-10-05T18:46:52.681Z,102261.38
2022-10-05T18:49:33.663Z,102269.06
2022-10-05T18:52:22.316Z,102263.59
2022-10-05T18:55:07.995Z,102274.09
2022-10-05T18:57:37.941Z,102273.06
2022-10-05T19:00:17.301Z,102277.34
2022-10-05T19:02:53.627Z,102287.00
2022-10-05T19:05:47.425Z,102294.00
2022-10-05T19:08:34.527Z,102282.28
2022-10-05T19:11:18.472Z,102275.03
2022-10-05T19:14:23.302Z,102312.03
2022-10-05T19:16:59.232Z,102319.84
2022-10-05T19:19:42.983Z,102319.84
2022-10-05T19:22:28.154Z,102308.22
2022-10-05T19:24:58.298Z,102327.75
2022-10-05T19:28:07.970Z,102327.69
2022-10-05T19:30:54.709Z,102318.56
2022-10-05T19:33:37.861Z,102320.16
2022-10-05T19:36:26.112Z,102337.94
2022-10-05T19:39:38.513Z,102334.16
2022-10-05T19:42:26.629Z,102320.81
2022-10-05T19:45:29.374Z,102341.97
2022-10-05T19:48:34.261Z,102341.72
2022-10-05T19:51:05.751Z,102341.53
2022-10-05T19:53:46.146Z,102351.13
2022-10-05T19:56:22.489Z,102352.84
2022-10-05T19:58:52.111Z,102360.94
2022-10-05T20:01:35.634Z,102358.97
2022-10-05T20:04:02.923Z,102364.22
2022-10-05T20:06:31.429Z,102362.25
2022-10-05T20:09:20.125Z,102356.09
2022-10-05T20:11:57.564Z,102367.44
2022-10-05T20:14:33.197Z,102370.94
2022-10-05T20:17:47.747Z,102380.56
2022-10-05T20:20:47.210Z,102382.13
2022-10-05T20:23:22.635Z,102376.59
2022-10-05T20:26:09.595Z,102391.72
2022-10-05T20:28:39.657Z,102393.25
2022-10-05T20:31:08.332Z,102381.53
2022-10-05T20:33:35.720Z,102405.53
2022-10-05T20:36:05.675Z,102410.75
2022-10-05T20:38:40.659Z,102408.91
2022-10-05T20:41:08.678Z,102415.03
2022-10-05T20:43:39.341Z,102422.09
2022-10-05T20:46:07.820Z,102420.47
2022-10-05T20:48:45.061Z,102424.00
2022-10-05T20:51:13.309Z,102428.59
2022-10-05T20:53:40.915Z,102424.25
2022-10-05T20:56:08.359Z,102423.25
2022-10-05T20:58:35.503Z,102436.47
2022-10-05T21:01:23.458Z,102436.50
2022-10-05T21:03:53.632Z,102444.34
2022-10-05T21:06:28.350Z,102451.38
2022-10-05T21:08:55.865Z,102432.66
2022-10-05T21:11:23.038Z,102441.78
2022-10-05T21:13:51.463Z,102451.56
2022-10-05T21:16:25.108Z,102458.59
2022-10-05T21:18:53.914Z,102456.09
2022-10-05T21:21:21.146Z,102464.94
2022-10-05T21:23:49.229Z,102472.13
2022-10-05T21:26:16.720Z,102463.25
2022-10-05T21:28:44.074Z,102473.94
2022-10-05T21:31:11.501Z,102481.94
2022-10-05T21:33:38.726Z,102478.50
2022-10-05T21:36:06.095Z,102476.84
2022-10-05T21:38:33.388Z,102484.03
2022-10-05T21:41:00.840Z,102480.59
2022-10-05T21:43:32.437Z,102482.41
2022-10-05T21:46:03.570Z,102478.88
2022-10-05T21:48:34.778Z,102495.75
2022-10-05T21:51:04.416Z,102497.47
2022-10-05T21:53:36.854Z,102481.41
2022-10-05T21:56:10.240Z,102493.09
2022-10-05T21:58:44.621Z,102502.84
2022-10-05T22:01:12.777Z,102505.59
2022-10-05T22:03:40.152Z,102510.91
2022-10-05T22:06:08.017Z,102512.75
2022-10-05T22:08:35.882Z,102516.34
2022-10-05T22:11:14.107Z,102517.31
2022-10-05T22:13:49.459Z,102511.16
2022-10-05T22:16:19.729Z,102517.47
2022-10-05T22:18:47.574Z,102508.59
2022-10-05T22:21:15.059Z,102515.72
2022-10-05T22:23:44.059Z,102515.78
2022-10-05T22:26:15.091Z,102521.94
2022-10-05T22:28:43.092Z,102521.09
2022-10-05T22:31:12.942Z,102522.94
2022-10-05T22:33:41.185Z,102526.47
2022-10-05T22:36:08.950Z,102527.38
2022-10-05T22:38:36.090Z,102524.81
2022-10-05T22:41:04.079Z,102518.53
2022-10-05T22:43:31.127Z,102531.91
2022-10-05T22:45:58.675Z,102545.22
2022-10-05T22:48:26.430Z,102532.78
2022-10-05T22:50:53.702Z,102546.13
2022-10-05T22:53:20.864Z,102545.19
2022-10-05T22:55:48.139Z,102541.75
2022-10-05T22:58:15.316Z,102545.31
